Watertown International Airport
KART : rendu visible

Aérodrome :











RETROUVEZ-NOUS SUR...

 
LOGIN :

S'inscrire | Disclaimer

   EN    FR    IT 

 









Légende :    VFR   VFR Marginal   IFR   IFR Intensif   IFR Très Intensif
Visi : 
Plafond : 
>= 8 km
>= 3000ft
5 à 8 km
1000 à 3000 ft
1500m à 5 km
500 à 1000 ft
800 à 1500m
200 à 500 ft
< 800m
< 200 ft
Symboles :   Orages  Brouillard  Fortes neiges  Fortes précipitations  Vent > 20 kt






- Altitude de l'aérodrome : 325 ft
- Code IATA : ART


KART - Watertown International

DERNIER METAR :
  • 202156Z AUTO 07008KT 10SM OVC022 09/06 A3032 RMK AO2 SLP267 T00890061 $

METARs EXPIRÉS :
  • 202056Z AUTO 06008KT 10SM BKN021 09/06 A3031 RMK AO2 SLP265 T00940061 51004 $
  • 201956Z AUTO 05008KT 10SM OVC015 09/06 A3031 RMK AO2 SLP264 T00890061 $
  • 201954Z AUTO 05007KT 10SM OVC015 09/06 A3031 RMK AO2 $
  • 201934Z AUTO 02006KT 10SM OVC011 09/06 A3030 RMK AO2 T00890061 $

TAF KART
Valide du 20 à 21h jusqu'au 21 à 18h UTC


202121Z 2021/2118 05006KT P6SM BKN020
FM211000 10008KT 6SM -SHRA OVC025 WS015/19045KT
FM211500 19018G26KT 4SM SHRA OVC015
FIR KZBW / Amérique du Nord



MET'MAP, la Météo Aéronautique d'un coup d'oeil ! - Copyright ORBIFLY Décembre 2007 - Disclaimer

ORBIFLY MET'MAP TEAM :

Programmation & Développement : Alexandra Zaïnal
Sur une idée originale de : Baudouin d'Aumeries
Assistance à la programmation : Marc-Olivier Méhu
Soutien technique & logistique : Manuel Goepfert

Contact : metmap@orbifly.com




SOURCES & CREDITS :

   NOAA       Earth
Advisory